createdAt,value
2018-04-18T00:00:30.714Z,15.9
2018-04-18T00:01:31.514Z,15.1
2018-04-18T00:02:32.255Z,16.7
2018-04-18T00:03:33.070Z,18.6
2018-04-18T00:04:33.815Z,17.4
2018-04-18T00:05:34.622Z,17.5
2018-04-18T00:06:35.428Z,17.3
2018-04-18T00:07:36.172Z,16.0
2018-04-18T00:08:36.930Z,16.9
2018-04-18T00:09:37.677Z,16.9
2018-04-18T00:10:38.425Z,16.0
2018-04-18T00:11:39.166Z,16.8
2018-04-18T00:12:39.896Z,18.2
2018-04-18T00:13:40.714Z,16.1
2018-04-18T00:14:41.457Z,17.6
2018-04-18T00:15:42.200Z,17.3
2018-04-18T00:16:42.955Z,17.6
2018-04-18T00:17:43.788Z,16.5
2018-04-18T00:18:44.532Z,18.4
2018-04-18T00:19:45.265Z,17.6
2018-04-18T00:20:46.012Z,17.2
2018-04-18T00:21:46.751Z,17.7
2018-04-18T00:22:47.485Z,16.0
2018-04-18T00:23:48.221Z,17.1
2018-04-18T00:24:49.027Z,17.5
2018-04-18T00:25:49.812Z,17.7
2018-04-18T00:26:50.635Z,16.6
2018-04-18T00:27:51.373Z,17.4
2018-04-18T00:28:52.103Z,16.8
2018-04-18T00:29:52.904Z,16.6
2018-04-18T00:30:53.637Z,16.4
2018-04-18T00:31:54.395Z,15.9
2018-04-18T00:32:55.136Z,16.5
2018-04-18T00:33:55.875Z,17.9
2018-04-18T00:34:56.644Z,17.2
2018-04-18T00:35:57.404Z,18.3
2018-04-18T00:36:58.138Z,17.4
2018-04-18T00:37:58.875Z,18.7
2018-04-18T00:38:59.614Z,17.9
2018-04-18T00:40:00.452Z,17.3
2018-04-18T00:41:01.178Z,19.0
2018-04-18T00:42:01.987Z,18.1
2018-04-18T00:43:02.730Z,18.3
2018-04-18T00:44:03.583Z,18.7
2018-04-18T00:45:04.280Z,19.3
2018-04-18T00:46:05.063Z,20.2
2018-04-18T00:47:05.839Z,19.8
2018-04-18T00:48:06.571Z,19.6
2018-04-18T00:49:07.373Z,21.0
2018-04-18T00:50:08.196Z,20.7
2018-04-18T00:51:08.964Z,20.5
2018-04-18T00:52:09.755Z,20.5
2018-04-18T00:53:10.588Z,20.1
2018-04-18T00:54:11.405Z,20.8
2018-04-18T00:55:12.234Z,21.2
2018-04-18T00:56:12.987Z,21.5
2018-04-18T00:57:13.779Z,21.6
2018-04-18T00:58:14.556Z,22.0
2018-04-18T00:59:15.346Z,22.2
2018-04-18T01:00:16.133Z,22.2
2018-04-18T01:01:16.945Z,22.5
2018-04-18T01:02:17.772Z,22.1
2018-04-18T01:03:18.550Z,22.0
2018-04-18T01:04:19.301Z,23.0
2018-04-18T01:05:20.022Z,23.4
2018-04-18T01:06:20.814Z,21.6
2018-04-18T01:07:21.667Z,22.8
2018-04-18T01:08:22.414Z,23.0
2018-04-18T01:09:23.107Z,22.5
2018-04-18T01:10:23.852Z,22.8
2018-04-18T01:11:24.588Z,20.8
2018-04-18T01:12:25.313Z,20.7
2018-04-18T01:13:26.147Z,21.1
2018-04-18T01:14:26.956Z,22.1
2018-04-18T01:15:27.713Z,21.1
2018-04-18T01:16:28.482Z,21.7
2018-04-18T01:17:29.337Z,21.8
2018-04-18T01:18:30.259Z,21.0
2018-04-18T01:19:31.034Z,22.4
2018-04-18T01:20:31.757Z,22.1
2018-04-18T01:21:32.508Z,22.2
2018-04-18T01:22:33.251Z,22.6
2018-04-18T01:23:34.045Z,22.0
2018-04-18T01:24:34.844Z,22.3
2018-04-18T01:25:35.599Z,23.1
2018-04-18T01:26:36.409Z,21.6
2018-04-18T01:27:37.233Z,22.1
2018-04-18T01:28:37.954Z,23.5
2018-04-18T01:29:38.887Z,22.3
2018-04-18T01:30:39.606Z,23.0
2018-04-18T01:31:40.351Z,23.2
2018-04-18T01:32:41.081Z,21.9
2018-04-18T01:33:41.886Z,22.1
2018-04-18T01:34:42.596Z,23.5
2018-04-18T01:35:43.359Z,25.2
2018-04-18T01:36:44.094Z,22.8
2018-04-18T01:37:44.837Z,23.5
2018-04-18T01:38:45.653Z,23.0
2018-04-18T01:39:46.369Z,24.2
2018-04-18T01:40:47.168Z,23.3
2018-04-18T01:41:47.904Z,23.6
2018-04-18T01:42:48.627Z,23.3
2018-04-18T01:43:49.364Z,23.3
2018-04-18T01:44:50.062Z,23.8
2018-04-18T01:45:50.864Z,23.0
2018-04-18T01:46:51.593Z,21.9
2018-04-18T01:47:52.336Z,22.9
2018-04-18T01:48:53.081Z,22.5
2018-04-18T01:49:53.779Z,22.0
2018-04-18T01:50:54.603Z,22.7
2018-04-18T01:51:55.426Z,23.0
2018-04-18T01:52:56.165Z,22.5
2018-04-18T01:53:57.007Z,24.5
2018-04-18T01:54:57.782Z,23.3
2018-04-18T01:55:58.504Z,23.4
2018-04-18T01:56:59.238Z,24.8
2018-04-18T01:57:59.985Z,22.4
2018-04-18T01:59:00.826Z,23.5
2018-04-18T02:00:01.570Z,22.2
2018-04-18T02:01:02.385Z,23.5
2018-04-18T02:02:03.120Z,24.4
2018-04-18T02:03:03.826Z,23.9
2018-04-18T02:04:04.562Z,23.4
2018-04-18T02:05:05.296Z,22.7
2018-04-18T02:06:06.031Z,23.1
2018-04-18T02:07:06.785Z,23.4
2018-04-18T02:08:07.516Z,23.5
2018-04-18T02:09:08.267Z,21.9
2018-04-18T02:10:08.995Z,22.9
2018-04-18T02:11:09.911Z,23.3
2018-04-18T02:12:10.664Z,23.1
2018-04-18T02:13:11.394Z,23.8
2018-04-18T02:14:12.128Z,23.0
2018-04-18T02:15:12.866Z,23.4
2018-04-18T02:16:13.716Z,23.8
2018-04-18T02:17:14.507Z,25.3
2018-04-18T02:18:15.257Z,25.8
2018-04-18T02:19:15.975Z,24.5
2018-04-18T02:20:16.737Z,24.8
2018-04-18T02:21:17.645Z,24.2
2018-04-18T02:22:18.444Z,25.2
2018-04-18T02:23:19.193Z,26.1
2018-04-18T02:24:20.003Z,24.8
2018-04-18T02:25:20.741Z,26.3
2018-04-18T02:26:21.568Z,26.2
2018-04-18T02:27:22.369Z,25.5
2018-04-18T02:28:23.062Z,25.2
2018-04-18T02:29:23.918Z,24.8
2018-04-18T02:30:24.663Z,24.4
2018-04-18T02:31:25.460Z,24.6
2018-04-18T02:32:26.183Z,24.8
2018-04-18T02:33:26.911Z,23.3
2018-04-18T02:34:27.633Z,24.2
2018-04-18T02:35:28.363Z,25.0
2018-04-18T02:36:29.148Z,24.1
2018-04-18T02:37:29.994Z,25.3
2018-04-18T02:38:30.708Z,23.8
2018-04-18T02:39:31.445Z,26.2
2018-04-18T02:40:32.258Z,25.0
2018-04-18T02:41:33.012Z,25.1
2018-04-18T02:42:33.740Z,26.0
2018-04-18T02:43:34.640Z,26.1
2018-04-18T02:44:35.433Z,26.6
2018-04-18T02:45:36.252Z,26.0
2018-04-18T02:46:36.979Z,26.3
2018-04-18T02:47:37.713Z,27.7
2018-04-18T02:48:38.439Z,26.2
2018-04-18T02:49:39.231Z,26.8
2018-04-18T02:50:40.050Z,26.8
2018-04-18T02:51:40.804Z,25.5
2018-04-18T02:52:41.598Z,26.6
2018-04-18T02:53:42.363Z,25.7
2018-04-18T02:54:43.187Z,24.5
2018-04-18T02:55:43.985Z,25.0
2018-04-18T02:56:44.799Z,27.4
2018-04-18T02:57:45.530Z,27.6
2018-04-18T02:58:46.276Z,27.5
2018-04-18T02:59:47.033Z,28.4
2018-04-18T03:00:47.777Z,27.8
2018-04-18T03:01:49.005Z,27.9
2018-04-18T03:02:49.729Z,28.0
2018-04-18T03:03:50.468Z,28.0
2018-04-18T03:04:51.259Z,27.3
2018-04-18T03:05:51.998Z,27.4
2018-04-18T03:06:52.737Z,27.7
2018-04-18T03:07:53.534Z,26.3
2018-04-18T03:08:54.276Z,27.7
2018-04-18T03:09:55.013Z,29.0
2018-04-18T03:10:55.737Z,28.3
2018-04-18T03:11:56.597Z,28.1
2018-04-18T03:12:57.338Z,27.8
2018-04-18T03:13:58.082Z,29.3
2018-04-18T03:14:58.877Z,27.9
2018-04-18T03:15:59.699Z,28.2
2018-04-18T03:17:00.438Z,28.9
2018-04-18T03:18:01.197Z,30.3
2018-04-18T03:19:01.970Z,30.5
2018-04-18T03:20:02.773Z,29.6
2018-04-18T03:21:03.499Z,30.3
2018-04-18T03:22:04.407Z,30.5
2018-04-18T03:23:05.188Z,30.5
2018-04-18T03:24:05.901Z,31.2
2018-04-18T03:25:06.629Z,32.2
2018-04-18T03:26:07.377Z,31.9
2018-04-18T03:27:08.128Z,32.6
2018-04-18T03:28:08.907Z,32.7
2018-04-18T03:29:10.027Z,31.5
2018-04-18T03:30:10.758Z,29.4
2018-04-18T03:31:11.541Z,31.0
2018-04-18T03:32:12.288Z,35.1
2018-04-18T03:33:13.107Z,38.1
2018-04-18T03:34:13.854Z,34.9
2018-04-18T03:35:14.649Z,88.7
2018-04-18T03:36:15.400Z,82.0
2018-04-18T03:37:16.138Z,35.3
2018-04-18T03:38:16.904Z,33.6
2018-04-18T03:39:17.698Z,32.3
2018-04-18T03:40:18.440Z,33.3
2018-04-18T03:41:19.206Z,32.9
2018-04-18T03:42:19.939Z,33.6
2018-04-18T03:43:20.698Z,32.8
2018-04-18T03:44:21.439Z,31.9
2018-04-18T03:45:22.173Z,32.0
2018-04-18T03:46:22.908Z,32.3
2018-04-18T03:47:23.703Z,32.1
2018-04-18T03:48:24.371Z,33.6
2018-04-18T03:49:25.119Z,35.9
2018-04-18T03:50:25.855Z,35.5
2018-04-18T03:51:26.590Z,33.5
2018-04-18T03:52:27.305Z,34.3
2018-04-18T03:53:28.028Z,34.4
2018-04-18T03:54:28.781Z,34.4
2018-04-18T03:55:29.542Z,36.1
2018-04-18T03:56:30.258Z,33.6
2018-04-18T03:57:31.024Z,34.3
2018-04-18T03:58:31.815Z,34.6
2018-04-18T03:59:32.575Z,35.4
2018-04-18T04:00:33.316Z,33.8
2018-04-18T04:01:34.151Z,33.9
2018-04-18T04:02:34.910Z,32.0
2018-04-18T04:03:35.616Z,32.0
2018-04-18T04:04:36.413Z,31.7
2018-04-18T04:05:37.153Z,32.9
2018-04-18T04:06:37.883Z,34.0
2018-04-18T04:07:38.609Z,35.5
2018-04-18T04:08:39.331Z,36.4
2018-04-18T04:09:40.085Z,34.3
2018-04-18T04:10:40.833Z,34.9
2018-04-18T04:11:41.617Z,35.2
2018-04-18T04:12:42.477Z,35.2
2018-04-18T04:13:43.277Z,34.0
2018-04-18T04:14:44.010Z,34.7
2018-04-18T04:15:44.818Z,34.3
2018-04-18T04:16:45.569Z,34.8
2018-04-18T04:17:46.379Z,33.5
2018-04-18T04:18:47.188Z,34.6
2018-04-18T04:19:47.919Z,33.0
2018-04-18T04:20:48.677Z,35.0
2018-04-18T04:21:49.405Z,37.0
2018-04-18T04:22:50.233Z,36.3
2018-04-18T04:23:51.044Z,36.0
2018-04-18T04:24:51.823Z,36.5
2018-04-18T04:25:52.517Z,35.4
2018-04-18T04:26:53.241Z,34.8
2018-04-18T04:27:53.972Z,34.9
2018-04-18T04:28:54.774Z,35.4
2018-04-18T04:29:55.506Z,35.8
2018-04-18T04:30:56.348Z,34.9
2018-04-18T04:31:57.058Z,35.4
2018-04-18T04:32:57.799Z,33.4
2018-04-18T04:33:58.653Z,35.1
2018-04-18T04:34:59.396Z,34.0
2018-04-18T04:36:00.122Z,33.7
2018-04-18T04:37:00.916Z,34.1
2018-04-18T04:38:01.675Z,34.5
2018-04-18T04:39:02.419Z,34.0
2018-04-18T04:40:03.184Z,35.7
2018-04-18T04:41:03.925Z,35.5
2018-04-18T04:42:04.676Z,35.3
2018-04-18T04:43:05.425Z,36.1
2018-04-18T04:44:06.160Z,36.2
2018-04-18T04:45:06.943Z,34.6
2018-04-18T04:46:07.760Z,36.2
2018-04-18T04:47:08.503Z,34.8
2018-04-18T04:48:09.238Z,35.9
2018-04-18T04:49:09.975Z,36.6
2018-04-18T04:50:10.758Z,35.0
2018-04-18T04:51:11.557Z,33.8
2018-04-18T04:52:12.306Z,34.9
2018-04-18T04:53:13.115Z,34.5
2018-04-18T04:54:13.840Z,35.8
2018-04-18T04:55:14.589Z,35.3
2018-04-18T04:56:15.322Z,36.3
2018-04-18T04:57:16.050Z,36.8
2018-04-18T04:58:16.792Z,35.6
2018-04-18T04:59:17.600Z,35.2
2018-04-18T05:00:18.313Z,35.2
2018-04-18T05:01:19.059Z,34.8
2018-04-18T05:02:19.815Z,35.4
2018-04-18T05:03:20.590Z,36.5
2018-04-18T05:04:21.313Z,35.7
2018-04-18T05:05:22.061Z,36.7
2018-04-18T05:06:22.804Z,35.2
2018-04-18T05:07:23.670Z,34.5
2018-04-18T05:08:24.573Z,35.7
2018-04-18T05:09:25.308Z,35.4
2018-04-18T05:10:26.132Z,35.1
2018-04-18T05:11:26.905Z,34.8
2018-04-18T05:12:27.652Z,35.6
2018-04-18T05:13:28.488Z,34.0
2018-04-18T05:14:29.227Z,35.4
2018-04-18T05:15:29.975Z,36.1
2018-04-18T05:16:30.716Z,33.9
2018-04-18T05:17:31.475Z,34.1
2018-04-18T05:18:32.522Z,35.2
2018-04-18T05:19:33.259Z,34.3
2018-04-18T05:20:34.154Z,34.2
2018-04-18T05:21:34.891Z,33.8
2018-04-18T05:22:35.641Z,33.6
2018-04-18T05:23:37.169Z,33.9
2018-04-18T05:24:37.901Z,31.5
2018-04-18T05:25:38.648Z,34.4
2018-04-18T05:26:39.390Z,32.0
2018-04-18T05:27:40.221Z,32.5
2018-04-18T05:28:41.043Z,30.5
2018-04-18T05:29:41.880Z,30.7
2018-04-18T05:30:42.676Z,30.4
2018-04-18T05:31:43.416Z,30.2
2018-04-18T05:32:44.142Z,34.6
2018-04-18T05:33:44.960Z,33.3
2018-04-18T05:34:45.714Z,30.8
2018-04-18T05:35:46.541Z,31.2
2018-04-18T05:36:47.267Z,30.5
2018-04-18T05:37:48.073Z,31.3
2018-04-18T05:38:48.846Z,31.0
2018-04-18T05:39:49.674Z,28.9
2018-04-18T05:40:50.458Z,28.4
2018-04-18T05:41:51.178Z,31.5
2018-04-18T05:42:51.913Z,28.3
2018-04-18T05:43:52.701Z,27.7
2018-04-18T05:44:53.441Z,26.7
2018-04-18T05:45:54.188Z,26.5
2018-04-18T05:46:54.979Z,24.4
2018-04-18T05:47:55.805Z,24.2
2018-04-18T05:48:56.555Z,22.5
2018-04-18T05:49:57.373Z,23.6
2018-04-18T05:50:58.255Z,23.6
2018-04-18T05:51:58.981Z,23.5
2018-04-18T05:52:59.737Z,24.8
2018-04-18T05:54:00.655Z,20.9
2018-04-18T05:55:01.394Z,21.6
2018-04-18T05:56:02.151Z,20.7
2018-04-18T05:57:02.866Z,21.2
2018-04-18T05:58:03.599Z,23.0
2018-04-18T05:59:04.344Z,24.1
2018-04-18T06:00:05.136Z,21.3
2018-04-18T06:01:05.871Z,22.4
2018-04-18T06:02:06.688Z,21.0
2018-04-18T06:03:07.489Z,20.3
2018-04-18T06:04:08.310Z,20.4
2018-04-18T06:05:09.112Z,20.2
2018-04-18T06:06:09.889Z,19.5
2018-04-18T06:07:10.584Z,19.2
2018-04-18T06:08:11.304Z,18.2
2018-04-18T06:09:12.159Z,19.1
2018-04-18T06:10:12.906Z,19.0
2018-04-18T06:11:13.776Z,19.2
2018-04-18T06:12:14.478Z,19.9
2018-04-18T06:13:15.215Z,18.6
2018-04-18T06:14:15.971Z,18.5
2018-04-18T06:15:16.733Z,18.8
2018-04-18T06:16:17.465Z,18.3
2018-04-18T06:17:18.240Z,18.2
2018-04-18T06:18:18.934Z,17.9
2018-04-18T06:19:19.719Z,17.9
2018-04-18T06:20:20.437Z,17.1
2018-04-18T06:21:21.229Z,17.9
2018-04-18T06:22:22.050Z,16.9
2018-04-18T06:23:22.796Z,17.7
2018-04-18T06:24:23.562Z,17.9
2018-04-18T06:25:24.303Z,17.8
2018-04-18T06:26:25.049Z,15.9
2018-04-18T06:27:25.848Z,16.7
2018-04-18T06:28:26.579Z,17.0
2018-04-18T06:29:27.322Z,18.4
2018-04-18T06:30:28.070Z,16.9
2018-04-18T06:31:28.836Z,16.8
2018-04-18T06:32:29.663Z,17.3
2018-04-18T06:33:30.476Z,17.0
2018-04-18T06:34:31.287Z,16.8
2018-04-18T06:35:32.038Z,16.1
2018-04-18T06:36:32.785Z,16.6
2018-04-18T06:37:33.884Z,17.3
2018-04-18T06:38:34.613Z,16.8
2018-04-18T06:39:35.348Z,16.4
2018-04-18T06:40:36.099Z,16.3
2018-04-18T06:41:36.859Z,16.6
2018-04-18T06:42:37.754Z,16.9
2018-04-18T06:43:38.499Z,16.0
2018-04-18T06:44:39.230Z,16.6
2018-04-18T06:45:39.986Z,15.9
2018-04-18T06:46:40.741Z,16.1
2018-04-18T06:47:41.885Z,16.5
2018-04-18T06:48:42.693Z,16.8
2018-04-18T06:49:43.452Z,17.0
2018-04-18T06:50:44.264Z,16.8
2018-04-18T06:51:45.022Z,16.0
2018-04-18T06:52:45.774Z,16.2
2018-04-18T06:53:46.523Z,15.6
2018-04-18T06:54:47.384Z,17.0
2018-04-18T06:55:48.165Z,17.2
2018-04-18T06:56:48.915Z,16.1
2018-04-18T06:57:49.661Z,15.8
2018-04-18T06:58:50.837Z,15.9
2018-04-18T06:59:51.572Z,15.2
2018-04-18T07:00:52.298Z,16.1
2018-04-18T07:01:53.042Z,15.0
2018-04-18T07:02:53.818Z,16.3
2018-04-18T07:03:54.566Z,14.0
2018-04-18T07:04:55.304Z,14.2
2018-04-18T07:05:56.050Z,15.8
2018-04-18T07:06:56.795Z,15.7
2018-04-18T07:07:57.606Z,15.2
2018-04-18T07:08:58.735Z,15.5
2018-04-18T07:09:59.489Z,14.2
2018-04-18T07:11:00.224Z,14.5
2018-04-18T07:12:00.974Z,14.8
2018-04-18T07:13:01.734Z,14.6
2018-04-18T07:14:02.491Z,13.6
2018-04-18T07:15:03.265Z,14.3
2018-04-18T07:16:04.055Z,14.1
2018-04-18T07:17:04.912Z,14.8
2018-04-18T07:18:05.632Z,13.9
2018-04-18T07:19:06.473Z,13.9
2018-04-18T07:20:07.570Z,14.4
2018-04-18T07:21:08.318Z,14.9
2018-04-18T07:22:09.109Z,14.1
2018-04-18T07:23:09.866Z,14.1
2018-04-18T07:24:10.696Z,14.8
2018-04-18T07:25:11.514Z,14.4
2018-04-18T07:26:12.272Z,15.2
2018-04-18T07:27:13.108Z,14.5
2018-04-18T07:28:13.865Z,13.3
2018-04-18T07:29:14.597Z,14.2
2018-04-18T07:30:15.330Z,14.1
2018-04-18T07:31:16.085Z,14.0
2018-04-18T07:32:16.970Z,13.8
2018-04-18T07:33:17.721Z,14.4
2018-04-18T07:34:18.585Z,13.6
2018-04-18T07:35:19.268Z,13.6
2018-04-18T07:36:20.046Z,13.8
2018-04-18T07:37:20.789Z,12.9
2018-04-18T07:38:21.560Z,13.1
2018-04-18T07:39:22.299Z,14.3
2018-04-18T07:40:23.051Z,13.0
2018-04-18T07:41:23.775Z,13.9
2018-04-18T07:42:24.587Z,13.7
2018-04-18T07:43:25.330Z,15.2
2018-04-18T07:44:26.154Z,13.6
2018-04-18T07:45:26.910Z,13.4
2018-04-18T07:46:27.663Z,13.1
2018-04-18T07:47:28.417Z,13.3
2018-04-18T07:48:29.167Z,12.5
2018-04-18T07:49:30.003Z,14.0
2018-04-18T07:50:30.813Z,13.2
2018-04-18T07:51:31.546Z,13.5
2018-04-18T07:52:32.297Z,12.4
2018-04-18T07:53:33.105Z,13.0
2018-04-18T07:54:33.866Z,12.0
2018-04-18T07:55:34.598Z,13.5
2018-04-18T07:56:35.417Z,12.2
2018-04-18T07:57:36.231Z,13.0
2018-04-18T07:58:37.069Z,12.4
2018-04-18T07:59:37.857Z,12.7
2018-04-18T08:00:38.604Z,11.4
2018-04-18T08:01:39.346Z,12.0
2018-04-18T08:02:40.116Z,11.6
2018-04-18T08:03:40.934Z,11.9
2018-04-18T08:04:41.685Z,13.1
2018-04-18T08:05:42.435Z,12.2
2018-04-18T08:06:43.370Z,11.8
2018-04-18T08:07:44.175Z,13.1
2018-04-18T08:08:44.906Z,11.6
2018-04-18T08:09:45.776Z,12.4
2018-04-18T08:10:46.646Z,12.1
2018-04-18T08:11:47.438Z,11.2
2018-04-18T08:12:48.296Z,11.8
2018-04-18T08:13:49.108Z,10.7
2018-04-18T08:14:49.887Z,11.7
2018-04-18T08:15:50.691Z,11.5
2018-04-18T08:16:51.467Z,11.2
2018-04-18T08:17:52.315Z,12.9
2018-04-18T08:18:53.292Z,12.0
2018-04-18T08:19:54.120Z,12.9
2018-04-18T08:20:54.879Z,12.7
2018-04-18T08:21:55.690Z,11.1
2018-04-18T08:22:56.436Z,11.2
2018-04-18T08:23:57.432Z,11.7
2018-04-18T08:24:58.259Z,11.6
2018-04-18T08:25:59.085Z,12.3
2018-04-18T08:26:59.964Z,12.6
2018-04-18T08:28:01.351Z,13.9
2018-04-18T08:29:02.043Z,13.0
2018-04-18T08:30:02.873Z,12.6
2018-04-18T08:31:04.012Z,13.9
2018-04-18T08:32:05.535Z,12.8
2018-04-18T08:33:07.013Z,13.9
2018-04-18T08:34:07.891Z,14.1
2018-04-18T08:35:08.650Z,16.5
2018-04-18T08:36:09.495Z,15.3
2018-04-18T08:37:10.306Z,13.6
2018-04-18T08:38:11.055Z,14.6
2018-04-18T08:39:11.894Z,15.2
2018-04-18T08:40:12.668Z,15.3
2018-04-18T08:41:13.430Z,15.3
2018-04-18T08:42:14.295Z,15.2
2018-04-18T08:43:15.028Z,14.5
2018-04-18T08:44:15.867Z,13.2
2018-04-18T08:45:16.602Z,15.1
2018-04-18T08:46:17.364Z,15.1
2018-04-18T08:47:18.140Z,14.8
2018-04-18T08:48:18.955Z,13.7
2018-04-18T08:49:19.777Z,13.9
2018-04-18T08:50:20.681Z,15.0
2018-04-18T08:51:21.433Z,14.5
2018-04-18T08:52:22.196Z,14.5
2018-04-18T08:53:22.953Z,15.0
2018-04-18T08:54:23.718Z,14.0
2018-04-18T08:55:24.557Z,15.1
2018-04-18T08:56:25.361Z,14.2
2018-04-18T08:57:26.198Z,15.1
2018-04-18T08:58:27.033Z,16.4
2018-04-18T08:59:27.886Z,17.2
2018-04-18T09:00:28.657Z,17.1
2018-04-18T09:01:29.467Z,17.4
2018-04-18T09:02:30.219Z,17.2
2018-04-18T09:03:30.971Z,19.5
2018-04-18T09:04:31.721Z,19.7
2018-04-18T09:05:32.492Z,18.8
2018-04-18T09:06:33.324Z,18.5
2018-04-18T09:07:34.160Z,17.2
2018-04-18T09:08:34.966Z,18.3
2018-04-18T09:09:35.733Z,18.8
2018-04-18T09:10:36.494Z,18.6
2018-04-18T09:11:37.353Z,20.7
2018-04-18T09:12:38.183Z,19.2
2018-04-18T09:13:38.922Z,18.9
2018-04-18T09:14:39.690Z,21.5
2018-04-18T09:15:40.531Z,20.0
2018-04-18T09:16:41.254Z,19.7
2018-04-18T09:17:42.059Z,18.9
2018-04-18T09:18:42.802Z,19.0
2018-04-18T09:19:43.663Z,17.3
2018-04-18T09:20:44.407Z,18.2
2018-04-18T09:21:45.149Z,18.1
2018-04-18T09:22:45.998Z,17.2
2018-04-18T09:23:46.805Z,16.6
2018-04-18T09:24:47.557Z,16.7
2018-04-18T09:25:48.383Z,17.2
2018-04-18T09:26:49.121Z,19.4
2018-04-18T09:27:49.867Z,18.0
2018-04-18T09:28:50.610Z,18.1
2018-04-18T09:29:51.408Z,19.1
2018-04-18T09:30:52.203Z,17.7
2018-04-18T09:31:52.962Z,17.4
2018-04-18T09:32:53.704Z,16.7
2018-04-18T09:33:54.503Z,18.2
2018-04-18T09:34:55.255Z,19.3
2018-04-18T09:35:56.024Z,18.5
2018-04-18T09:36:56.862Z,17.0
2018-04-18T09:37:57.605Z,17.6
2018-04-18T09:38:58.361Z,20.8
2018-04-18T09:39:59.120Z,19.6
2018-04-18T09:41:00.211Z,20.8
2018-04-18T09:42:01.217Z,19.1
2018-04-18T09:43:01.979Z,19.4
2018-04-18T09:44:02.858Z,18.5
2018-04-18T09:45:03.694Z,19.5
2018-04-18T09:46:04.513Z,20.7
2018-04-18T09:47:05.272Z,21.9
2018-04-18T09:48:06.038Z,23.5
2018-04-18T09:49:06.911Z,20.8
2018-04-18T09:50:07.677Z,21.0
2018-04-18T09:51:08.438Z,22.4
2018-04-18T09:52:09.285Z,22.3
2018-04-18T09:53:10.043Z,21.5
2018-04-18T09:54:10.851Z,22.2
2018-04-18T09:55:11.704Z,23.3
2018-04-18T09:56:12.443Z,21.4
2018-04-18T09:57:13.193Z,21.1
2018-04-18T09:58:13.976Z,22.1
2018-04-18T09:59:14.721Z,21.5
2018-04-18T10:00:15.613Z,22.2
2018-04-18T10:01:16.365Z,21.7
2018-04-18T10:02:17.203Z,22.2
2018-04-18T10:03:18.301Z,21.5
2018-04-18T10:04:19.050Z,21.3
2018-04-18T10:05:19.809Z,23.0
2018-04-18T10:06:20.565Z,21.7
2018-04-18T10:07:21.328Z,22.0
2018-04-18T10:08:22.186Z,22.5
2018-04-18T10:09:22.999Z,21.0
2018-04-18T10:10:23.752Z,19.2
2018-04-18T10:11:24.505Z,20.7
2018-04-18T10:12:25.302Z,20.9
2018-04-18T10:13:26.060Z,19.9
2018-04-18T10:14:26.824Z,19.4
2018-04-18T10:15:27.645Z,20.3
2018-04-18T10:16:28.394Z,20.4
2018-04-18T10:17:29.243Z,19.2
2018-04-18T10:18:30.113Z,16.7
2018-04-18T10:19:30.933Z,15.7
2018-04-18T10:20:31.767Z,14.2
2018-04-18T10:21:32.514Z,14.3
2018-04-18T10:22:33.287Z,15.9
2018-04-18T10:23:34.046Z,14.8
2018-04-18T10:24:34.859Z,12.8
2018-04-18T10:25:35.951Z,10.3
2018-04-18T10:26:36.802Z,11.0
2018-04-18T10:27:37.629Z,11.7
2018-04-18T10:28:38.360Z,10.3
2018-04-18T10:29:39.102Z,10.4
2018-04-18T10:30:39.949Z,11.6
2018-04-18T10:31:40.785Z,11.9
2018-04-18T10:32:41.532Z,11.0
2018-04-18T10:33:42.293Z,12.8
2018-04-18T10:34:43.016Z,13.3
2018-04-18T10:35:43.863Z,13.8
2018-04-18T10:36:44.610Z,13.3
2018-04-18T10:37:45.370Z,13.2
2018-04-18T10:38:46.167Z,14.4
2018-04-18T10:39:46.961Z,13.8
2018-04-18T10:40:47.723Z,12.7
2018-04-18T10:41:48.453Z,13.8
2018-04-18T10:42:49.314Z,14.0
2018-04-18T10:43:50.030Z,14.0
2018-04-18T10:44:50.798Z,14.6
2018-04-18T10:45:51.602Z,13.5
2018-04-18T10:46:52.348Z,14.1
2018-04-18T10:47:53.128Z,13.7
2018-04-18T10:48:53.862Z,13.8
2018-04-18T10:49:54.693Z,15.7
2018-04-18T10:50:55.413Z,17.2
2018-04-18T10:51:56.182Z,16.5
2018-04-18T10:52:56.973Z,17.6
2018-04-18T10:53:57.665Z,17.7
2018-04-18T10:54:58.491Z,17.7
2018-04-18T10:55:59.244Z,18.7
2018-04-18T10:56:59.984Z,16.8
2018-04-18T10:58:00.811Z,18.2
2018-04-18T10:59:01.566Z,18.8
2018-04-18T11:00:03.244Z,18.4
2018-04-18T11:01:03.932Z,17.7
2018-04-18T11:02:04.681Z,18.0
2018-04-18T11:03:05.428Z,17.7
2018-04-18T11:04:06.192Z,17.4
2018-04-18T11:05:06.961Z,17.9
2018-04-18T11:06:07.716Z,18.5
2018-04-18T11:07:08.474Z,16.9
2018-04-18T11:08:09.283Z,17.0
2018-04-18T11:09:10.032Z,17.8
2018-04-18T11:10:10.793Z,16.0
2018-04-18T11:11:11.549Z,17.2
2018-04-18T11:12:12.321Z,17.5
2018-04-18T11:13:13.501Z,18.1
2018-04-18T11:14:14.295Z,18.3
2018-04-18T11:15:15.075Z,18.8
2018-04-18T11:16:15.884Z,19.4
2018-04-18T11:17:16.644Z,19.7
2018-04-18T11:18:17.488Z,18.9
2018-04-18T11:19:18.257Z,19.1
2018-04-18T11:20:19.024Z,18.5
2018-04-18T11:21:19.783Z,18.0
2018-04-18T11:22:20.620Z,19.3
2018-04-18T11:23:21.425Z,20.9
2018-04-18T11:24:22.192Z,19.8
2018-04-18T11:25:22.951Z,19.5
2018-04-18T11:26:23.693Z,18.9
2018-04-18T11:27:24.519Z,19.3
2018-04-18T11:28:25.379Z,19.9
2018-04-18T11:29:26.188Z,19.2
2018-04-18T11:30:26.955Z,19.4
2018-04-18T11:31:27.735Z,19.7
2018-04-18T11:32:28.573Z,19.4
2018-04-18T11:33:29.332Z,18.6
2018-04-18T11:34:30.179Z,18.7
2018-04-18T11:35:31.020Z,18.1
2018-04-18T11:36:31.854Z,18.8
2018-04-18T11:37:32.692Z,18.1
2018-04-18T11:38:33.444Z,17.9
2018-04-18T11:39:34.255Z,19.0
2018-04-18T11:40:35.030Z,18.5
2018-04-18T11:41:35.774Z,18.4
2018-04-18T11:42:36.530Z,18.8
2018-04-18T11:43:37.279Z,19.7
2018-04-18T11:44:38.028Z,18.5
2018-04-18T11:45:38.798Z,18.5
2018-04-18T11:46:39.538Z,17.9
2018-04-18T11:47:40.353Z,18.6
2018-04-18T11:48:41.107Z,18.4
2018-04-18T11:49:41.906Z,17.8
2018-04-18T11:50:42.665Z,15.6
2018-04-18T11:51:43.402Z,16.9
2018-04-18T11:52:44.206Z,18.0
2018-04-18T11:53:44.979Z,18.3
2018-04-18T11:54:45.883Z,18.0
2018-04-18T11:55:46.630Z,18.6
2018-04-18T11:56:47.415Z,17.6
2018-04-18T11:57:48.166Z,19.2
2018-04-18T11:58:48.923Z,18.1
2018-04-18T11:59:49.735Z,17.1
2018-04-18T12:00:50.497Z,17.4
2018-04-18T12:01:51.294Z,18.2
2018-04-18T12:02:52.102Z,17.4
2018-04-18T12:03:52.850Z,18.6
2018-04-18T12:04:53.608Z,17.5
2018-04-18T12:05:54.398Z,16.7
2018-04-18T12:06:55.164Z,18.0
2018-04-18T12:07:55.937Z,18.1
2018-04-18T12:08:56.774Z,17.4
2018-04-18T12:09:57.590Z,16.7
2018-04-18T12:10:58.339Z,18.7
2018-04-18T12:11:59.179Z,16.2
2018-04-18T12:12:59.973Z,17.4
2018-04-18T12:14:00.774Z,16.8
2018-04-18T12:15:01.615Z,18.5
2018-04-18T12:16:02.381Z,18.0
2018-04-18T12:17:03.147Z,19.8
2018-04-18T12:18:03.888Z,18.2
2018-04-18T12:19:04.676Z,18.7
2018-04-18T12:20:05.440Z,17.7
2018-04-18T12:21:06.309Z,17.6
2018-04-18T12:22:07.074Z,19.9
2018-04-18T12:23:07.843Z,18.4
2018-04-18T12:24:08.589Z,19.2
2018-04-18T12:25:09.443Z,17.8
2018-04-18T12:26:10.185Z,17.7
2018-04-18T12:27:10.960Z,18.3
2018-04-18T12:28:11.715Z,18.0
2018-04-18T12:29:12.470Z,19.2
2018-04-18T12:30:13.233Z,17.3
2018-04-18T12:31:14.052Z,18.2
2018-04-18T12:32:15.145Z,17.9
2018-04-18T12:33:15.922Z,17.4
2018-04-18T12:34:16.673Z,17.4
2018-04-18T12:35:17.529Z,17.6
2018-04-18T12:36:18.351Z,17.7
2018-04-18T12:37:19.099Z,17.6
2018-04-18T12:38:19.851Z,17.4
2018-04-18T12:39:20.609Z,17.3
2018-04-18T12:40:21.374Z,17.2
2018-04-18T12:41:22.166Z,18.4
2018-04-18T12:42:23.023Z,18.9
2018-04-18T12:43:23.766Z,17.8
2018-04-18T12:44:24.538Z,17.9
2018-04-18T12:45:25.337Z,18.1
2018-04-18T12:46:26.133Z,16.6
2018-04-18T12:47:26.932Z,16.0
2018-04-18T12:48:27.759Z,18.1
2018-04-18T12:49:28.525Z,16.7
2018-04-18T12:50:29.285Z,16.3
2018-04-18T12:51:30.051Z,17.8
2018-04-18T12:52:30.930Z,15.9
2018-04-18T12:53:31.775Z,17.6
2018-04-18T12:54:32.519Z,17.1
2018-04-18T12:55:33.281Z,16.5
2018-04-18T12:56:34.039Z,15.1
2018-04-18T12:57:34.914Z,15.4
2018-04-18T12:58:35.798Z,16.1
2018-04-18T12:59:36.557Z,15.7
2018-04-18T13:00:37.300Z,16.3
2018-04-18T13:01:38.071Z,17.5
2018-04-18T13:02:38.819Z,16.4
2018-04-18T13:03:39.559Z,17.0
2018-04-18T13:04:40.326Z,17.3
2018-04-18T13:05:41.557Z,17.4
2018-04-18T13:06:42.296Z,17.3
2018-04-18T13:07:43.083Z,15.8
2018-04-18T13:08:43.836Z,15.9
2018-04-18T13:09:44.575Z,16.0
2018-04-18T13:10:45.349Z,14.1
2018-04-18T13:11:46.084Z,14.5
2018-04-18T13:12:46.906Z,15.6
2018-04-18T13:13:47.719Z,15.1
2018-04-18T13:14:48.478Z,15.6
2018-04-18T13:15:49.250Z,14.6
2018-04-18T13:16:50.012Z,14.8
2018-04-18T13:17:50.746Z,14.8
2018-04-18T13:18:51.551Z,15.0
2018-04-18T13:19:52.321Z,14.9
2018-04-18T13:20:53.179Z,13.6
2018-04-18T13:21:53.928Z,14.2
2018-04-18T13:22:54.758Z,13.5
2018-04-18T13:23:55.603Z,13.8
2018-04-18T13:24:56.341Z,15.1
2018-04-18T13:25:57.153Z,15.9
2018-04-18T13:26:57.977Z,15.2
2018-04-18T13:27:58.746Z,14.9
2018-04-18T13:28:59.502Z,15.2